MCO weather

Orlando International Airport
Orlando, Florida, United States

Public forecast

Using degrees Fahrenheit for public forecast. Weather courtesy of forecast.io.

METAR (pilot weather report)

Retrieved 2019/04/21 11:53 UTC (37 minutes ago):

KMCO 211153Z 23004KT 10SM FEW060 15/12 A3011 RMK AO2 SLP193 T01500117 10156 20117 53017

TAF (pilot weather forecast)

Retrieved 2019/04/21 12:24 UTC (6 minutes ago):

TAF KMCO 211123Z 2112/2218 23005KT P6SM SKC FM211500 29008KT P6SM SKC FM220100 VRB03KT P6SM SKC FM221500 04007KT P6SM SKC